createdAt,value
2023-03-05T00:01:26.503Z,34.97
2023-03-05T00:03:55.584Z,51.92
2023-03-05T00:06:25.469Z,38.10
2023-03-05T00:08:53.443Z,45.03
2023-03-05T00:11:21.016Z,43.83
2023-03-05T00:13:47.626Z,48.25
2023-03-05T00:16:17.326Z,46.13
2023-03-05T00:18:44.826Z,42.53
2023-03-05T00:21:26.464Z,50.22
2023-03-05T00:23:53.843Z,51.83
2023-03-05T00:26:22.715Z,49.58
2023-03-05T00:28:51.870Z,45.80
2023-03-05T00:31:21.108Z,43.38
2023-03-05T00:33:55.815Z,41.58
2023-03-05T00:36:24.397Z,49.22
2023-03-05T00:38:51.012Z,41.15
2023-03-05T00:41:17.578Z,41.95
2023-03-05T00:43:44.125Z,46.60
2023-03-05T00:46:11.730Z,40.90
2023-03-05T00:48:38.387Z,40.67
2023-03-05T00:51:05.227Z,38.55
2023-03-05T00:53:32.209Z,41.95
2023-03-05T00:55:59.250Z,42.28
2023-03-05T00:58:25.983Z,43.65
2023-03-05T01:00:52.564Z,41.08
2023-03-05T01:03:19.486Z,38.72
2023-03-05T01:05:46.211Z,38.65
2023-03-05T01:08:12.808Z,40.65
2023-03-05T01:10:39.341Z,40.03
2023-03-05T01:13:05.948Z,47.13
2023-03-05T01:15:32.497Z,39.33
2023-03-05T01:17:59.041Z,39.40
2023-03-05T01:20:25.590Z,37.95
2023-03-05T01:22:52.868Z,36.35
2023-03-05T01:25:19.875Z,36.03
2023-03-05T01:27:46.408Z,42.92
2023-03-05T01:30:14.548Z,41.45
2023-03-05T01:32:41.313Z,38.70
2023-03-05T01:35:08.768Z,39.17
2023-03-05T01:37:35.294Z,39.15
2023-03-05T01:40:01.931Z,38.88
2023-03-05T01:42:28.498Z,40.28
2023-03-05T01:45:10.141Z,35.42
2023-03-05T01:47:37.145Z,38.42
2023-03-05T01:50:07.495Z,33.88
2023-03-05T01:52:39.351Z,37.80
2023-03-05T01:55:11.837Z,35.00
2023-03-05T01:57:45.748Z,37.72
2023-03-05T02:00:46.749Z,35.03
2023-03-05T02:03:14.629Z,25.88
2023-03-05T02:05:44.415Z,29.48
2023-03-05T02:08:20.913Z,25.77
2023-03-05T02:10:56.358Z,25.77
2023-03-05T02:13:25.801Z,23.00
2023-03-05T02:15:54.572Z,21.55
2023-03-05T02:18:21.953Z,21.90
2023-03-05T02:20:52.068Z,22.65
2023-03-05T02:23:21.152Z,25.90
2023-03-05T02:25:47.924Z,23.08
2023-03-05T02:28:26.181Z,24.65
2023-03-05T02:30:52.760Z,29.15
2023-03-05T02:33:20.549Z,22.55
2023-03-05T02:35:48.285Z,27.33
2023-03-05T02:38:18.078Z,27.23
2023-03-05T02:40:44.702Z,24.95
2023-03-05T02:43:12.971Z,21.83
2023-03-05T02:45:39.977Z,22.13
2023-03-05T02:48:06.846Z,22.25
2023-03-05T02:50:34.292Z,24.63
2023-03-05T02:53:01.097Z,25.55
2023-03-05T02:55:28.496Z,24.80
2023-03-05T02:57:55.156Z,23.88
2023-03-05T03:00:22.572Z,25.98
2023-03-05T03:02:49.892Z,26.05
2023-03-05T03:05:16.457Z,25.75
2023-03-05T03:07:43.023Z,23.40
2023-03-05T03:10:10.728Z,19.70
2023-03-05T03:12:41.725Z,27.98
2023-03-05T03:15:09.945Z,26.20
2023-03-05T03:17:37.247Z,25.20
2023-03-05T03:20:09.083Z,27.65
2023-03-05T03:25:03.222Z,26.02
2023-03-05T03:27:29.773Z,25.02
2023-03-05T03:29:56.331Z,25.33
2023-03-05T03:32:22.916Z,28.25
2023-03-05T03:34:49.663Z,28.05
2023-03-05T03:37:16.612Z,22.75
2023-03-05T03:39:43.149Z,25.42
2023-03-05T03:42:09.653Z,22.67
2023-03-05T03:44:36.190Z,25.27
2023-03-05T03:47:02.940Z,26.42
2023-03-05T03:49:29.583Z,22.25
2023-03-05T03:51:56.119Z,25.00
2023-03-05T03:54:22.985Z,19.38
2023-03-05T03:56:49.750Z,19.13
2023-03-05T03:59:16.491Z,22.58
2023-03-05T04:01:43.304Z,29.63
2023-03-05T04:04:12.460Z,22.55
2023-03-05T04:06:39.450Z,24.83
2023-03-05T04:09:08.091Z,20.60
2023-03-05T04:11:35.601Z,21.58
2023-03-05T04:14:02.682Z,19.33
2023-03-05T04:16:29.458Z,19.30
2023-03-05T04:18:56.040Z,22.52
2023-03-05T04:21:22.636Z,22.92
2023-03-05T04:23:49.181Z,23.02
2023-03-05T04:26:15.720Z,25.33
2023-03-05T04:28:42.275Z,24.63
2023-03-05T04:31:08.952Z,21.58
2023-03-05T04:33:35.515Z,25.55
2023-03-05T04:36:02.116Z,22.52
2023-03-05T04:38:28.708Z,21.58
2023-03-05T04:40:55.268Z,18.73
2023-03-05T04:43:22.248Z,17.45
2023-03-05T04:45:48.746Z,17.80
2023-03-05T04:48:15.459Z,15.32
2023-03-05T04:50:42.004Z,18.65
2023-03-05T04:53:08.602Z,17.55
2023-03-05T04:55:35.113Z,17.92
2023-03-05T04:58:01.682Z,16.00
2023-03-05T05:00:28.193Z,17.13
2023-03-05T05:02:55.025Z,17.85
2023-03-05T05:05:26.181Z,16.20
2023-03-05T05:07:57.395Z,18.90
2023-03-05T05:10:25.906Z,18.48
2023-03-05T05:12:52.515Z,16.77
2023-03-05T05:15:19.185Z,16.35
2023-03-05T05:17:47.996Z,17.58
2023-03-05T05:20:16.454Z,15.95
2023-03-05T05:22:43.469Z,19.65
2023-03-05T05:25:10.961Z,16.80
2023-03-05T05:27:38.974Z,18.13
2023-03-05T05:30:06.799Z,15.80
2023-03-05T05:32:33.585Z,18.40
2023-03-05T05:35:00.464Z,15.80
2023-03-05T05:37:27.653Z,18.52
2023-03-05T05:39:54.250Z,19.08
2023-03-05T05:42:23.036Z,20.65
2023-03-05T05:44:49.921Z,16.90
2023-03-05T05:47:17.595Z,21.20
2023-03-05T05:49:44.141Z,20.17
2023-03-05T05:52:10.665Z,15.52
2023-03-05T05:54:37.348Z,16.63
2023-03-05T05:57:03.985Z,16.52
2023-03-05T05:59:30.558Z,17.30
2023-03-05T06:01:57.381Z,16.45
2023-03-05T06:04:23.946Z,17.48
2023-03-05T06:06:50.949Z,18.15
2023-03-05T06:09:17.854Z,18.58
2023-03-05T06:11:46.574Z,17.90
2023-03-05T06:14:13.690Z,18.88
2023-03-05T06:16:40.792Z,16.52
2023-03-05T06:19:11.394Z,17.52
2023-03-05T06:21:38.105Z,24.85
2023-03-05T06:24:05.255Z,21.70
2023-03-05T06:26:33.834Z,17.52
2023-03-05T06:29:00.515Z,19.95
2023-03-05T06:31:28.903Z,20.40
2023-03-05T06:33:57.790Z,17.33
2023-03-05T06:36:25.512Z,16.05
2023-03-05T06:38:53.563Z,15.98
2023-03-05T06:41:29.012Z,15.65
2023-03-05T06:43:56.395Z,16.33
2023-03-05T06:46:31.468Z,17.65
2023-03-05T06:49:00.687Z,16.40
2023-03-05T06:51:33.106Z,19.30
2023-03-05T06:54:05.408Z,18.95
2023-03-05T06:56:31.909Z,19.73
2023-03-05T06:58:59.216Z,21.42
2023-03-05T07:01:25.900Z,16.80
2023-03-05T07:03:54.213Z,21.38
2023-03-05T07:06:21.814Z,20.75
2023-03-05T07:08:49.118Z,20.98
2023-03-05T07:11:18.367Z,20.35
2023-03-05T07:13:47.716Z,22.13
2023-03-05T07:16:17.107Z,24.98
2023-03-05T07:18:44.118Z,21.45
2023-03-05T07:21:16.142Z,24.25
2023-03-05T07:23:42.842Z,28.42
2023-03-05T07:26:11.175Z,25.88
2023-03-05T07:28:37.763Z,21.75
2023-03-05T07:31:11.870Z,29.27
2023-03-05T07:33:38.509Z,25.92
2023-03-05T07:36:08.350Z,27.10
2023-03-05T07:38:35.086Z,26.60
2023-03-05T07:41:07.248Z,25.63
2023-03-05T07:43:33.777Z,24.02
2023-03-05T07:46:03.439Z,22.20
2023-03-05T07:48:30.029Z,21.45
2023-03-05T07:51:09.950Z,23.23
2023-03-05T07:53:36.753Z,25.95
2023-03-05T07:56:03.443Z,25.70
2023-03-05T07:58:30.018Z,26.55
2023-03-05T08:00:56.528Z,24.48
2023-03-05T08:03:23.098Z,25.15
2023-03-05T08:05:49.672Z,20.70
2023-03-05T08:08:16.528Z,19.80
2023-03-05T08:10:43.049Z,23.20
2023-03-05T08:13:09.660Z,24.95
2023-03-05T08:15:37.678Z,24.13
2023-03-05T08:18:04.578Z,48.95
2023-03-05T08:20:31.267Z,40.92
2023-03-05T08:22:57.776Z,78.47
2023-03-05T08:25:24.372Z,92.50
2023-03-05T08:27:50.918Z,39.92
2023-03-05T08:30:20.248Z,24.50
2023-03-05T08:32:49.037Z,19.30
2023-03-05T08:35:15.602Z,21.58
2023-03-05T08:37:42.151Z,23.85
2023-03-05T08:40:10.204Z,20.90
2023-03-05T08:42:36.710Z,23.55
2023-03-05T08:45:03.329Z,20.73
2023-03-05T08:47:30.023Z,23.17
2023-03-05T08:49:57.655Z,21.83
2023-03-05T08:52:24.845Z,20.92
2023-03-05T08:54:51.502Z,24.67
2023-03-05T08:57:18.200Z,22.13
2023-03-05T08:59:44.742Z,24.73
2023-03-05T09:02:13.320Z,24.45
2023-03-05T09:04:40.475Z,22.38
2023-03-05T09:07:07.053Z,22.73
2023-03-05T09:09:34.054Z,20.15
2023-03-05T09:12:01.702Z,24.08
2023-03-05T09:14:28.784Z,24.52
2023-03-05T09:16:56.824Z,27.05
2023-03-05T09:19:24.303Z,22.88
2023-03-05T09:21:51.314Z,22.52
2023-03-05T09:24:17.888Z,23.17
2023-03-05T09:26:44.409Z,26.38
2023-03-05T09:29:11.137Z,20.65
2023-03-05T09:31:38.497Z,22.05
2023-03-05T09:34:05.749Z,24.75
2023-03-05T09:36:32.821Z,23.52
2023-03-05T09:38:59.415Z,24.15
2023-03-05T09:41:40.762Z,26.80
2023-03-05T09:44:22.262Z,22.40
2023-03-05T09:47:36.575Z,20.33
2023-03-05T09:50:31.798Z,19.92
2023-03-05T09:53:22.926Z,21.38
2023-03-05T09:55:58.741Z,26.20
2023-03-05T09:58:35.412Z,20.17
2023-03-05T10:01:06.390Z,23.33
2023-03-05T10:03:45.711Z,17.80
2023-03-05T10:06:23.192Z,22.77
2023-03-05T10:08:55.266Z,21.48
2023-03-05T10:11:53.748Z,22.33
2023-03-05T10:14:33.208Z,21.25
2023-03-05T10:17:21.548Z,21.50
2023-03-05T10:19:56.962Z,21.85
2023-03-05T10:22:28.882Z,20.85
2023-03-05T10:25:23.646Z,20.75
2023-03-05T10:27:56.873Z,17.67
2023-03-05T10:30:40.534Z,17.70
2023-03-05T10:33:38.256Z,18.48
2023-03-05T10:36:17.029Z,20.70
2023-03-05T10:39:18.322Z,20.05
2023-03-05T10:41:56.463Z,22.30
2023-03-05T10:44:37.533Z,19.05
2023-03-05T10:47:21.578Z,20.15
2023-03-05T10:49:56.723Z,21.15
2023-03-05T10:52:31.047Z,21.33
2023-03-05T10:54:57.897Z,18.17
2023-03-05T10:57:27.713Z,19.02
2023-03-05T11:00:01.097Z,20.45
2023-03-05T11:02:31.609Z,19.95
2023-03-05T11:04:58.611Z,26.77
2023-03-05T11:07:25.238Z,20.40
2023-03-05T11:10:01.968Z,22.75
2023-03-05T11:12:36.577Z,19.27
2023-03-05T11:15:09.389Z,22.05
2023-03-05T11:17:44.771Z,20.92
2023-03-05T11:20:27.613Z,17.27
2023-03-05T11:23:06.615Z,20.02
2023-03-05T11:25:35.029Z,24.88
2023-03-05T11:28:03.079Z,27.77
2023-03-05T11:30:35.458Z,16.90
2023-03-05T11:33:22.618Z,70.78
2023-03-05T11:36:09.473Z,24.50
2023-03-05T11:38:50.033Z,15.68
2023-03-05T11:41:20.583Z,10.43
2023-03-05T11:43:49.528Z,10.90
2023-03-05T11:46:18.980Z,11.43
2023-03-05T11:48:46.924Z,7.00
2023-03-05T11:51:20.664Z,9.30
2023-03-05T11:53:52.268Z,9.55
2023-03-05T11:56:24.444Z,6.25
2023-03-05T11:59:12.899Z,8.35
2023-03-05T12:01:50.231Z,5.70
2023-03-05T12:04:18.495Z,6.22
2023-03-05T12:06:55.778Z,6.30
2023-03-05T12:09:44.340Z,7.32
2023-03-05T12:13:01.788Z,9.20
2023-03-05T12:15:37.073Z,8.73
2023-03-05T12:18:09.815Z,8.23
2023-03-05T12:21:03.951Z,5.93
2023-03-05T12:23:45.461Z,6.25
2023-03-05T12:26:12.182Z,9.10
2023-03-05T12:28:42.060Z,7.28
2023-03-05T12:31:08.830Z,7.22
2023-03-05T12:33:39.630Z,7.90
2023-03-05T12:36:21.645Z,7.18
2023-03-05T12:38:56.203Z,7.22
2023-03-05T12:41:22.865Z,5.85
2023-03-05T12:44:05.076Z,8.65
2023-03-05T12:46:42.888Z,10.57
2023-03-05T12:49:19.049Z,8.95
2023-03-05T12:51:48.438Z,6.50
2023-03-05T12:54:27.298Z,6.20
2023-03-05T12:56:57.081Z,6.78
2023-03-05T12:59:30.318Z,5.55
2023-03-05T13:02:01.244Z,7.70
2023-03-05T13:04:31.977Z,6.82
2023-03-05T13:07:06.016Z,8.23
2023-03-05T13:09:36.502Z,7.88
2023-03-05T13:12:11.605Z,6.22
2023-03-05T13:14:48.798Z,7.00
2023-03-05T13:17:28.813Z,6.25
2023-03-05T13:19:56.303Z,6.38
2023-03-05T13:22:24.675Z,7.95
2023-03-05T13:25:05.348Z,8.52
2023-03-05T13:27:33.049Z,8.30
2023-03-05T13:29:59.883Z,10.20
2023-03-05T13:32:28.881Z,9.15
2023-03-05T13:34:58.664Z,10.35
2023-03-05T13:37:34.625Z,9.35
2023-03-05T13:40:07.916Z,9.85
2023-03-05T13:42:39.124Z,8.52
2023-03-05T13:45:21.212Z,8.55
2023-03-05T13:48:03.040Z,7.43
2023-03-05T13:53:37.310Z,7.38
2023-03-05T13:56:07.271Z,8.40
2023-03-05T13:58:48.183Z,10.27
2023-03-05T14:01:15.882Z,7.60
2023-03-05T14:03:42.921Z,8.98
2023-03-05T14:06:18.992Z,8.68
2023-03-05T14:08:51.662Z,7.57
2023-03-05T14:11:19.541Z,8.80
2023-03-05T14:13:48.335Z,7.45
2023-03-05T14:16:33.235Z,7.38
2023-03-05T14:19:02.628Z,9.18
2023-03-05T14:21:50.286Z,8.18
2023-03-05T14:24:23.565Z,8.15
2023-03-05T14:26:53.767Z,7.50
2023-03-05T14:29:24.283Z,7.85
2023-03-05T14:32:04.161Z,8.88
2023-03-05T14:34:38.169Z,9.07
2023-03-05T14:37:16.727Z,9.85
2023-03-05T14:39:56.603Z,7.10
2023-03-05T14:42:27.867Z,9.38
2023-03-05T14:44:55.940Z,9.27
2023-03-05T14:47:27.076Z,7.72
2023-03-05T14:49:54.116Z,8.80
2023-03-05T14:52:23.991Z,10.55
2023-03-05T14:54:51.980Z,11.20
2023-03-05T14:57:25.215Z,10.27
2023-03-05T14:59:52.109Z,11.25
2023-03-05T15:02:22.495Z,9.70
2023-03-05T15:04:49.500Z,13.68
2023-03-05T15:07:31.374Z,12.68
2023-03-05T15:12:25.893Z,10.52
2023-03-05T15:14:54.564Z,12.77
2023-03-05T15:17:39.570Z,9.55
2023-03-05T15:20:09.983Z,10.60
2023-03-05T15:22:37.528Z,11.50
2023-03-05T15:25:04.883Z,10.88
2023-03-05T15:27:31.967Z,13.57
2023-03-05T15:29:59.694Z,13.68
2023-03-05T15:32:30.981Z,11.82
2023-03-05T15:34:59.004Z,10.40
2023-03-05T15:37:26.164Z,11.18
2023-03-05T15:39:53.503Z,12.27
2023-03-05T15:42:20.351Z,9.38
2023-03-05T15:44:47.150Z,10.73
2023-03-05T15:47:14.132Z,8.60
2023-03-05T15:49:41.007Z,9.20
2023-03-05T15:52:07.852Z,9.65
2023-03-05T15:54:36.497Z,11.32
2023-03-05T15:57:08.118Z,9.02
2023-03-05T15:59:34.856Z,10.07
2023-03-05T16:02:02.244Z,9.35
2023-03-05T16:04:29.786Z,9.50
2023-03-05T16:06:59.246Z,9.18
2023-03-05T16:09:29.302Z,9.50
2023-03-05T16:11:56.822Z,8.52
2023-03-05T16:14:27.943Z,9.35
2023-03-05T16:16:56.389Z,10.15
2023-03-05T16:19:24.416Z,12.38
2023-03-05T16:21:51.266Z,11.00
2023-03-05T16:24:18.027Z,10.68
2023-03-05T16:26:44.862Z,10.95
2023-03-05T16:29:11.935Z,12.45
2023-03-05T16:31:41.524Z,11.10
2023-03-05T16:34:09.236Z,12.32
2023-03-05T16:36:35.978Z,9.73
2023-03-05T16:39:04.786Z,7.68
2023-03-05T16:41:32.347Z,10.13
2023-03-05T16:43:59.544Z,9.65
2023-03-05T16:46:29.255Z,8.88
2023-03-05T16:48:57.814Z,8.25
2023-03-05T16:51:24.998Z,10.10
2023-03-05T16:53:51.818Z,9.93
2023-03-05T16:56:19.399Z,8.50
2023-03-05T16:58:46.539Z,10.05
2023-03-05T17:01:16.265Z,10.00
2023-03-05T17:03:44.079Z,8.90
2023-03-05T17:06:17.515Z,11.82
2023-03-05T17:08:45.037Z,10.52
2023-03-05T17:11:12.670Z,9.68
2023-03-05T17:13:40.073Z,8.38
2023-03-05T17:16:08.400Z,7.15
2023-03-05T17:18:35.596Z,9.50
2023-03-05T17:21:04.224Z,8.77
2023-03-05T17:23:31.350Z,8.32
2023-03-05T17:25:58.279Z,7.03
2023-03-05T17:28:25.916Z,10.75
2023-03-05T17:30:52.698Z,6.95
2023-03-05T17:33:19.465Z,6.50
2023-03-05T17:35:47.321Z,7.63
2023-03-05T17:38:14.749Z,9.52
2023-03-05T17:40:41.864Z,10.25
2023-03-05T17:43:08.770Z,10.02
2023-03-05T17:45:35.751Z,10.35
2023-03-05T17:48:04.200Z,8.85
2023-03-05T17:50:31.261Z,7.00
2023-03-05T17:52:57.965Z,7.68
2023-03-05T17:55:25.737Z,6.75
2023-03-05T17:57:55.037Z,9.25
2023-03-05T18:00:26.694Z,7.60
2023-03-05T18:02:54.233Z,9.73
2023-03-05T18:05:24.337Z,9.43
2023-03-05T18:07:52.253Z,8.63
2023-03-05T18:10:23.922Z,9.32
2023-03-05T18:12:51.405Z,11.07
2023-03-05T18:15:20.247Z,8.07
2023-03-05T18:17:51.049Z,8.20
2023-03-05T18:20:31.633Z,8.27
2023-03-05T18:23:00.271Z,8.73
2023-03-05T18:25:34.473Z,11.20
2023-03-05T18:28:06.382Z,8.60
2023-03-05T18:30:34.931Z,9.77
2023-03-05T18:33:01.757Z,7.50
2023-03-05T18:35:34.914Z,9.65
2023-03-05T18:38:01.779Z,8.57
2023-03-05T18:40:32.547Z,11.05
2023-03-05T18:43:03.472Z,13.13
2023-03-05T18:45:31.142Z,11.57
2023-03-05T18:48:01.135Z,13.38
2023-03-05T18:50:29.116Z,11.15
2023-03-05T18:52:55.939Z,10.18
2023-03-05T18:55:29.103Z,11.73
2023-03-05T18:57:56.449Z,11.23
2023-03-05T19:00:26.866Z,9.57
2023-03-05T19:02:54.810Z,7.45
2023-03-05T19:05:22.197Z,8.77
2023-03-05T19:07:49.987Z,9.45
2023-03-05T19:10:17.795Z,8.45
2023-03-05T19:13:05.986Z,10.88
2023-03-05T19:15:32.699Z,9.55
2023-03-05T19:18:00.205Z,9.80
2023-03-05T19:20:27.633Z,11.15
2023-03-05T19:22:56.159Z,11.32
2023-03-05T19:25:23.107Z,9.65
2023-03-05T19:27:50.043Z,11.48
2023-03-05T19:30:20.170Z,15.15
2023-03-05T19:32:47.280Z,14.55
2023-03-05T19:35:17.739Z,16.58
2023-03-05T19:37:46.068Z,11.93
2023-03-05T19:40:15.818Z,10.20
2023-03-05T19:42:43.128Z,9.65
2023-03-05T19:45:10.419Z,11.48
2023-03-05T19:47:37.164Z,12.30
2023-03-05T19:50:05.384Z,13.85
2023-03-05T19:52:32.132Z,14.68
2023-03-05T19:55:00.064Z,15.50
2023-03-05T19:57:26.806Z,13.10
2023-03-05T19:59:53.788Z,11.18
2023-03-05T20:02:22.000Z,12.13
2023-03-05T20:04:49.863Z,12.05
2023-03-05T20:07:17.149Z,12.63
2023-03-05T20:09:44.059Z,18.55
2023-03-05T20:12:10.937Z,12.95
2023-03-05T20:14:37.845Z,12.35
2023-03-05T20:17:04.622Z,10.65
2023-03-05T20:19:31.354Z,14.40
2023-03-05T20:21:58.102Z,13.38
2023-03-05T20:24:24.851Z,11.70
2023-03-05T20:26:51.517Z,13.65
2023-03-05T20:29:18.854Z,12.18
2023-03-05T20:31:46.770Z,15.27
2023-03-05T20:34:17.017Z,14.70
2023-03-05T20:36:44.261Z,16.92
2023-03-05T20:39:11.184Z,17.15
2023-03-05T20:41:40.146Z,19.50
2023-03-05T20:44:08.205Z,15.02
2023-03-05T20:46:39.535Z,15.18
2023-03-05T20:49:06.329Z,15.98
2023-03-05T20:51:35.996Z,13.18
2023-03-05T20:54:06.307Z,15.00
2023-03-05T20:56:35.017Z,13.20
2023-03-05T20:59:04.786Z,15.68
2023-03-05T21:01:33.105Z,12.20
2023-03-05T21:04:01.012Z,14.93
2023-03-05T21:06:29.132Z,14.48
2023-03-05T21:08:56.221Z,14.13
2023-03-05T21:11:23.074Z,14.63
2023-03-05T21:13:49.798Z,9.57
2023-03-05T21:16:20.330Z,12.55
2023-03-05T21:18:46.990Z,13.95
2023-03-05T21:21:13.879Z,11.02
2023-03-05T21:23:40.621Z,11.63
2023-03-05T21:26:07.385Z,13.02
2023-03-05T21:28:34.492Z,14.73
2023-03-05T21:31:08.061Z,11.57
2023-03-05T21:33:35.307Z,13.15
2023-03-05T21:36:02.080Z,14.80
2023-03-05T21:38:30.819Z,13.15
2023-03-05T21:40:58.953Z,14.70
2023-03-05T21:43:27.074Z,13.85
2023-03-05T21:45:54.908Z,15.02
2023-03-05T21:48:22.641Z,14.88
2023-03-05T21:50:50.362Z,13.57
2023-03-05T21:53:18.478Z,12.65
2023-03-05T21:56:14.437Z,12.93
2023-03-05T21:58:41.469Z,12.10
2023-03-05T22:01:11.070Z,16.23
2023-03-05T22:03:38.052Z,15.77
2023-03-05T22:06:09.475Z,15.13
2023-03-05T22:08:36.369Z,14.88
2023-03-05T22:11:08.629Z,15.23
2023-03-05T22:13:36.783Z,14.23
2023-03-05T22:16:03.664Z,14.35
2023-03-05T22:18:32.389Z,14.32
2023-03-05T22:20:59.836Z,13.88
2023-03-05T22:23:29.951Z,15.52
2023-03-05T22:25:57.921Z,12.35
2023-03-05T22:28:24.877Z,15.38
2023-03-05T22:30:51.708Z,13.15
2023-03-05T22:33:18.536Z,12.35
2023-03-05T22:35:45.379Z,14.30
2023-03-05T22:38:12.878Z,15.85
2023-03-05T22:40:45.502Z,15.75
2023-03-05T22:43:12.992Z,14.52
2023-03-05T22:45:40.420Z,15.88
2023-03-05T22:48:07.701Z,20.75
2023-03-05T22:50:34.440Z,18.10
2023-03-05T22:53:01.288Z,19.17
2023-03-05T22:55:28.027Z,16.48
2023-03-05T22:57:54.738Z,20.02
2023-03-05T23:00:23.718Z,15.77
2023-03-05T23:02:51.598Z,14.45
2023-03-05T23:05:19.207Z,19.80
2023-03-05T23:07:46.679Z,17.50
2023-03-05T23:10:27.011Z,17.15
2023-03-05T23:12:55.935Z,18.23
2023-03-05T23:15:27.658Z,18.23
2023-03-05T23:20:26.095Z,21.42
2023-03-05T23:22:55.898Z,21.52
2023-03-05T23:25:29.079Z,17.33
2023-03-05T23:27:58.025Z,16.92
2023-03-05T23:30:26.835Z,18.20
2023-03-05T23:33:08.475Z,18.83
2023-03-05T23:35:38.017Z,15.90
2023-03-05T23:38:08.844Z,16.90
2023-03-05T23:40:39.965Z,16.50
2023-03-05T23:43:07.034Z,16.95
2023-03-05T23:45:34.169Z,18.88
2023-03-05T23:48:01.008Z,17.70
2023-03-05T23:50:33.955Z,15.35
2023-03-05T23:53:02.304Z,16.15
2023-03-05T23:55:35.443Z,15.35
2023-03-05T23:58:02.792Z,15.20
